Lake Charles Regional Airport
KLCH : rendu visible

Aérodrome :











RETROUVEZ-NOUS SUR...

 
LOGIN :

S'inscrire | Disclaimer

   EN    FR    IT 

 









Légende :    VFR   VFR Marginal   IFR   IFR Intensif   IFR Très Intensif
Visi : 
Plafond : 
>= 8 km
>= 3000ft
5 à 8 km
1000 à 3000 ft
1500m à 5 km
500 à 1000 ft
800 à 1500m
200 à 500 ft
< 800m
< 200 ft
Symboles :   Orages  Brouillard  Fortes neiges  Fortes précipitations  Vent > 20 kt






- Altitude de l'aérodrome : 15 ft
- Code IATA : LCH


KLCH - Lake Charles Regional

DERNIER METAR :
  • 050853Z AUTO 23003KT 10SM CLR 27/27 A2985 RMK AO2 SLP115 T02670267 56011

METARs EXPIRÉS :
  • 050753Z AUTO 00000KT 10SM CLR 27/27 A2985 RMK AO2 SLP115 T02670267
  • 050653Z AUTO 24004KT 10SM CLR 27/27 A2986 RMK AO2 SLP118 T02670267

TAF KLCH
Valide du 05 à 06h jusqu'au 06 à 06h UTC


050520Z 0506/0606 VRB03KT P6SM FEW015
FM051400 28006KT P6SM SCT025
FM051900 24008KT P6SM VCTS SCT040CB BKN150
PROB30 0519/0601 4SM TSRA OVC025CB
FM060200 20003KT P6SM FEW050 BKN250
FIR KZHU / Amérique du Nord



MET'MAP, la Météo Aéronautique d'un coup d'oeil ! - Copyright ORBIFLY Décembre 2007 - Disclaimer

ORBIFLY MET'MAP TEAM :

Programmation & Développement : Alexandra Zaïnal
Sur une idée originale de : Baudouin d'Aumeries
Assistance à la programmation : Marc-Olivier Méhu
Soutien technique & logistique : Manuel Goepfert

Contact : metmap@orbifly.com




SOURCES & CREDITS :

   NOAA       Earth
Advisory